sensor_id;sensor_type;location;lat;lon;timestamp;P1;durP1;ratioP1;P2;durP2;ratioP2
34573;SDS011;20809;49.594;8.734;2023-09-30T00:01:23;4.43;;;1.55;;
34573;SDS011;20809;49.594;8.734;2023-09-30T00:04:24;4.38;;;2.15;;
34573;SDS011;20809;49.594;8.734;2023-09-30T00:07:24;3.88;;;2.90;;
34573;SDS011;20809;49.594;8.734;2023-09-30T00:10:26;2.85;;;2.28;;
34573;SDS011;20809;49.594;8.734;2023-09-30T00:13:27;4.15;;;2.40;;
34573;SDS011;20809;49.594;8.734;2023-09-30T00:19:29;6.93;;;2.37;;
34573;SDS011;20809;49.594;8.734;2023-09-30T00:22:29;4.80;;;2.55;;
34573;SDS011;20809;49.594;8.734;2023-09-30T00:25:30;3.92;;;2.65;;
34573;SDS011;20809;49.594;8.734;2023-09-30T00:28:30;5.87;;;2.40;;
34573;SDS011;20809;49.594;8.734;2023-09-30T00:31:31;3.55;;;2.88;;
34573;SDS011;20809;49.594;8.734;2023-09-30T00:34:33;7.93;;;3.25;;
34573;SDS011;20809;49.594;8.734;2023-09-30T00:37:40;7.25;;;3.38;;
34573;SDS011;20809;49.594;8.734;2023-09-30T00:40:48;3.17;;;2.78;;
34573;SDS011;20809;49.594;8.734;2023-09-30T00:43:51;5.28;;;2.95;;
34573;SDS011;20809;49.594;8.734;2023-09-30T00:46:53;4.40;;;3.33;;
34573;SDS011;20809;49.594;8.734;2023-09-30T00:49:56;5.53;;;3.33;;
34573;SDS011;20809;49.594;8.734;2023-09-30T00:52:58;4.68;;;2.72;;
34573;SDS011;20809;49.594;8.734;2023-09-30T00:56:00;5.30;;;3.40;;
34573;SDS011;20809;49.594;8.734;2023-09-30T00:59:02;5.03;;;3.70;;
34573;SDS011;20809;49.594;8.734;2023-09-30T01:02:05;8.27;;;3.67;;
34573;SDS011;20809;49.594;8.734;2023-09-30T01:05:08;6.30;;;3.72;;
34573;SDS011;20809;49.594;8.734;2023-09-30T01:08:09;4.47;;;2.78;;
34573;SDS011;20809;49.594;8.734;2023-09-30T01:11:12;6.90;;;3.20;;
34573;SDS011;20809;49.594;8.734;2023-09-30T01:14:31;5.30;;;2.70;;
34573;SDS011;20809;49.594;8.734;2023-09-30T01:17:41;5.95;;;2.88;;
34573;SDS011;20809;49.594;8.734;2023-09-30T01:20:45;4.68;;;2.53;;
34573;SDS011;20809;49.594;8.734;2023-09-30T01:23:48;10.02;;;3.42;;
34573;SDS011;20809;49.594;8.734;2023-09-30T01:26:49;5.80;;;2.80;;
34573;SDS011;20809;49.594;8.734;2023-09-30T01:29:51;2.97;;;2.35;;
34573;SDS011;20809;49.594;8.734;2023-09-30T01:32:53;3.13;;;2.22;;
34573;SDS011;20809;49.594;8.734;2023-09-30T01:35:55;4.43;;;2.67;;
34573;SDS011;20809;49.594;8.734;2023-09-30T01:38:57;4.05;;;2.65;;
34573;SDS011;20809;49.594;8.734;2023-09-30T01:41:59;7.05;;;2.65;;
34573;SDS011;20809;49.594;8.734;2023-09-30T01:45:00;5.85;;;3.05;;
34573;SDS011;20809;49.594;8.734;2023-09-30T01:48:03;5.20;;;2.60;;
34573;SDS011;20809;49.594;8.734;2023-09-30T01:51:05;6.82;;;2.88;;
34573;SDS011;20809;49.594;8.734;2023-09-30T01:54:10;4.22;;;2.38;;
34573;SDS011;20809;49.594;8.734;2023-09-30T01:57:11;3.95;;;2.90;;
34573;SDS011;20809;49.594;8.734;2023-09-30T02:00:16;4.15;;;2.65;;
34573;SDS011;20809;49.594;8.734;2023-09-30T02:03:18;7.55;;;3.05;;
34573;SDS011;20809;49.594;8.734;2023-09-30T02:06:20;5.35;;;2.70;;
34573;SDS011;20809;49.594;8.734;2023-09-30T02:09:22;5.35;;;2.72;;
34573;SDS011;20809;49.594;8.734;2023-09-30T02:12:23;3.60;;;2.80;;
34573;SDS011;20809;49.594;8.734;2023-09-30T02:15:25;4.78;;;2.45;;
34573;SDS011;20809;49.594;8.734;2023-09-30T02:18:27;5.55;;;2.80;;
34573;SDS011;20809;49.594;8.734;2023-09-30T02:21:31;5.82;;;2.85;;
34573;SDS011;20809;49.594;8.734;2023-09-30T02:24:32;4.97;;;2.58;;
34573;SDS011;20809;49.594;8.734;2023-09-30T02:27:34;6.75;;;2.75;;
34573;SDS011;20809;49.594;8.734;2023-09-30T02:30:36;4.50;;;2.60;;
34573;SDS011;20809;49.594;8.734;2023-09-30T02:33:38;4.80;;;2.67;;
34573;SDS011;20809;49.594;8.734;2023-09-30T02:36:39;4.93;;;2.78;;
34573;SDS011;20809;49.594;8.734;2023-09-30T02:39:42;5.47;;;2.40;;
34573;SDS011;20809;49.594;8.734;2023-09-30T02:42:45;7.13;;;3.30;;
34573;SDS011;20809;49.594;8.734;2023-09-30T02:45:48;5.53;;;3.20;;
34573;SDS011;20809;49.594;8.734;2023-09-30T02:48:50;9.20;;;2.90;;
34573;SDS011;20809;49.594;8.734;2023-09-30T02:51:52;4.13;;;2.95;;
34573;SDS011;20809;49.594;8.734;2023-09-30T02:54:54;7.18;;;3.25;;
34573;SDS011;20809;49.594;8.734;2023-09-30T02:57:57;5.18;;;3.22;;
34573;SDS011;20809;49.594;8.734;2023-09-30T03:01:01;5.35;;;2.92;;
34573;SDS011;20809;49.594;8.734;2023-09-30T03:04:03;6.35;;;3.72;;
34573;SDS011;20809;49.594;8.734;2023-09-30T03:07:07;5.97;;;3.00;;
34573;SDS011;20809;49.594;8.734;2023-09-30T03:10:09;7.38;;;3.35;;
34573;SDS011;20809;49.594;8.734;2023-09-30T03:13:13;9.95;;;3.25;;
34573;SDS011;20809;49.594;8.734;2023-09-30T03:16:14;4.53;;;3.33;;
34573;SDS011;20809;49.594;8.734;2023-09-30T03:19:16;4.00;;;3.15;;
34573;SDS011;20809;49.594;8.734;2023-09-30T03:22:18;4.35;;;3.72;;
34573;SDS011;20809;49.594;8.734;2023-09-30T03:25:20;8.20;;;3.75;;
34573;SDS011;20809;49.594;8.734;2023-09-30T03:28:22;6.13;;;3.90;;
34573;SDS011;20809;49.594;8.734;2023-09-30T03:31:25;5.55;;;3.30;;
34573;SDS011;20809;49.594;8.734;2023-09-30T03:34:27;7.07;;;3.90;;
34573;SDS011;20809;49.594;8.734;2023-09-30T03:37:29;4.28;;;3.05;;
34573;SDS011;20809;49.594;8.734;2023-09-30T03:40:31;7.85;;;4.07;;
34573;SDS011;20809;49.594;8.734;2023-09-30T03:43:34;6.10;;;2.97;;
34573;SDS011;20809;49.594;8.734;2023-09-30T03:46:41;6.82;;;3.90;;
34573;SDS011;20809;49.594;8.734;2023-09-30T03:49:43;4.68;;;3.35;;
34573;SDS011;20809;49.594;8.734;2023-09-30T03:52:45;5.47;;;3.83;;
34573;SDS011;20809;49.594;8.734;2023-09-30T03:55:47;7.40;;;3.60;;
34573;SDS011;20809;49.594;8.734;2023-09-30T03:58:52;9.02;;;3.80;;
34573;SDS011;20809;49.594;8.734;2023-09-30T04:01:54;7.03;;;3.70;;
34573;SDS011;20809;49.594;8.734;2023-09-30T04:04:57;5.07;;;3.75;;
34573;SDS011;20809;49.594;8.734;2023-09-30T04:08:04;8.55;;;4.32;;
34573;SDS011;20809;49.594;8.734;2023-09-30T04:11:06;7.50;;;5.00;;
34573;SDS011;20809;49.594;8.734;2023-09-30T04:14:09;11.07;;;4.35;;
34573;SDS011;20809;49.594;8.734;2023-09-30T04:17:11;6.35;;;5.40;;
34573;SDS011;20809;49.594;8.734;2023-09-30T04:20:13;7.63;;;4.60;;
34573;SDS011;20809;49.594;8.734;2023-09-30T04:23:23;6.32;;;4.63;;
34573;SDS011;20809;49.594;8.734;2023-09-30T04:26:26;8.55;;;4.90;;
34573;SDS011;20809;49.594;8.734;2023-09-30T04:29:27;10.40;;;6.03;;
34573;SDS011;20809;49.594;8.734;2023-09-30T04:32:29;8.68;;;4.82;;
34573;SDS011;20809;49.594;8.734;2023-09-30T04:35:31;7.05;;;4.28;;
34573;SDS011;20809;49.594;8.734;2023-09-30T04:38:35;7.95;;;5.00;;
34573;SDS011;20809;49.594;8.734;2023-09-30T04:41:40;8.23;;;5.78;;
34573;SDS011;20809;49.594;8.734;2023-09-30T04:44:42;8.45;;;5.13;;
34573;SDS011;20809;49.594;8.734;2023-09-30T04:47:47;10.07;;;5.05;;
34573;SDS011;20809;49.594;8.734;2023-09-30T04:50:51;7.90;;;4.70;;
34573;SDS011;20809;49.594;8.734;2023-09-30T04:53:53;12.98;;;5.80;;
34573;SDS011;20809;49.594;8.734;2023-09-30T04:57:02;7.90;;;5.25;;
34573;SDS011;20809;49.594;8.734;2023-09-30T05:00:04;6.68;;;5.05;;
34573;SDS011;20809;49.594;8.734;2023-09-30T05:03:12;10.40;;;5.80;;
34573;SDS011;20809;49.594;8.734;2023-09-30T05:09:14;10.45;;;6.97;;
34573;SDS011;20809;49.594;8.734;2023-09-30T05:12:18;13.15;;;6.32;;
34573;SDS011;20809;49.594;8.734;2023-09-30T05:15:20;10.45;;;6.88;;
34573;SDS011;20809;49.594;8.734;2023-09-30T05:18:22;10.98;;;5.80;;
34573;SDS011;20809;49.594;8.734;2023-09-30T05:21:26;5.95;;;5.13;;
34573;SDS011;20809;49.594;8.734;2023-09-30T05:24:30;9.27;;;4.75;;
34573;SDS011;20809;49.594;8.734;2023-09-30T05:27:38;7.15;;;4.53;;
34573;SDS011;20809;49.594;8.734;2023-09-30T05:30:39;9.18;;;4.90;;
34573;SDS011;20809;49.594;8.734;2023-09-30T05:36:41;7.23;;;4.80;;
34573;SDS011;20809;49.594;8.734;2023-09-30T05:42:44;6.72;;;4.85;;
34573;SDS011;20809;49.594;8.734;2023-09-30T05:45:45;11.20;;;5.13;;
34573;SDS011;20809;49.594;8.734;2023-09-30T05:48:49;9.75;;;4.97;;
34573;SDS011;20809;49.594;8.734;2023-09-30T05:51:50;9.98;;;4.78;;
34573;SDS011;20809;49.594;8.734;2023-09-30T05:54:51;5.45;;;4.13;;
34573;SDS011;20809;49.594;8.734;2023-09-30T05:57:51;7.15;;;4.72;;
34573;SDS011;20809;49.594;8.734;2023-09-30T06:00:52;6.10;;;5.15;;
34573;SDS011;20809;49.594;8.734;2023-09-30T06:03:53;7.45;;;4.93;;
34573;SDS011;20809;49.594;8.734;2023-09-30T06:09:55;5.53;;;4.60;;
34573;SDS011;20809;49.594;8.734;2023-09-30T06:12:56;5.75;;;4.18;;
34573;SDS011;20809;49.594;8.734;2023-09-30T06:15:58;5.10;;;4.25;;
34573;SDS011;20809;49.594;8.734;2023-09-30T06:18:59;10.95;;;5.60;;
34573;SDS011;20809;49.594;8.734;2023-09-30T06:21:59;6.15;;;4.22;;
34573;SDS011;20809;49.594;8.734;2023-09-30T06:25:00;8.53;;;4.87;;
34573;SDS011;20809;49.594;8.734;2023-09-30T06:28:05;7.20;;;5.20;;
34573;SDS011;20809;49.594;8.734;2023-09-30T06:31:10;5.07;;;4.25;;
34573;SDS011;20809;49.594;8.734;2023-09-30T06:34:11;6.00;;;4.10;;
34573;SDS011;20809;49.594;8.734;2023-09-30T06:37:12;5.90;;;3.67;;
34573;SDS011;20809;49.594;8.734;2023-09-30T06:40:13;4.88;;;3.25;;
34573;SDS011;20809;49.594;8.734;2023-09-30T06:43:14;9.18;;;3.67;;
34573;SDS011;20809;49.594;8.734;2023-09-30T06:46:18;5.90;;;4.00;;
34573;SDS011;20809;49.594;8.734;2023-09-30T06:49:18;3.80;;;2.65;;
34573;SDS011;20809;49.594;8.734;2023-09-30T06:52:19;9.77;;;3.88;;
34573;SDS011;20809;49.594;8.734;2023-09-30T06:55:20;4.85;;;3.70;;
34573;SDS011;20809;49.594;8.734;2023-09-30T06:58:20;7.32;;;3.53;;
34573;SDS011;20809;49.594;8.734;2023-09-30T07:01:21;6.53;;;3.30;;
34573;SDS011;20809;49.594;8.734;2023-09-30T07:04:22;5.07;;;3.50;;
34573;SDS011;20809;49.594;8.734;2023-09-30T07:07:22;4.72;;;3.65;;
34573;SDS011;20809;49.594;8.734;2023-09-30T07:10:23;9.48;;;4.28;;
34573;SDS011;20809;49.594;8.734;2023-09-30T07:13:24;6.38;;;3.95;;
34573;SDS011;20809;49.594;8.734;2023-09-30T07:16:25;6.18;;;3.53;;
34573;SDS011;20809;49.594;8.734;2023-09-30T07:19:28;6.70;;;3.85;;
34573;SDS011;20809;49.594;8.734;2023-09-30T07:22:29;5.30;;;3.13;;
34573;SDS011;20809;49.594;8.734;2023-09-30T07:25:29;7.57;;;3.67;;
34573;SDS011;20809;49.594;8.734;2023-09-30T07:28:34;6.13;;;3.20;;
34573;SDS011;20809;49.594;8.734;2023-09-30T07:31:35;6.38;;;2.95;;
34573;SDS011;20809;49.594;8.734;2023-09-30T07:34:36;9.68;;;3.25;;
34573;SDS011;20809;49.594;8.734;2023-09-30T07:37:36;7.00;;;3.15;;
34573;SDS011;20809;49.594;8.734;2023-09-30T07:40:37;6.28;;;3.22;;
34573;SDS011;20809;49.594;8.734;2023-09-30T07:43:38;8.18;;;3.03;;
34573;SDS011;20809;49.594;8.734;2023-09-30T07:46:38;8.75;;;3.17;;
34573;SDS011;20809;49.594;8.734;2023-09-30T07:49:39;5.43;;;2.75;;
34573;SDS011;20809;49.594;8.734;2023-09-30T07:52:40;8.63;;;3.40;;
34573;SDS011;20809;49.594;8.734;2023-09-30T07:55:42;6.95;;;2.78;;
34573;SDS011;20809;49.594;8.734;2023-09-30T07:58:42;7.13;;;3.40;;
34573;SDS011;20809;49.594;8.734;2023-09-30T08:01:43;5.50;;;3.03;;
34573;SDS011;20809;49.594;8.734;2023-09-30T08:04:44;9.05;;;3.42;;
34573;SDS011;20809;49.594;8.734;2023-09-30T08:07:44;5.13;;;2.57;;
34573;SDS011;20809;49.594;8.734;2023-09-30T08:13:46;4.93;;;2.70;;
34573;SDS011;20809;49.594;8.734;2023-09-30T08:16:47;4.45;;;2.25;;
34573;SDS011;20809;49.594;8.734;2023-09-30T08:19:49;7.10;;;3.55;;
34573;SDS011;20809;49.594;8.734;2023-09-30T08:22:50;6.57;;;2.75;;
34573;SDS011;20809;49.594;8.734;2023-09-30T08:25:50;11.10;;;3.55;;
34573;SDS011;20809;49.594;8.734;2023-09-30T08:28:51;8.27;;;7.50;;
34573;SDS011;20809;49.594;8.734;2023-09-30T08:31:52;7.63;;;3.35;;
34573;SDS011;20809;49.594;8.734;2023-09-30T08:34:52;5.28;;;2.85;;
34573;SDS011;20809;49.594;8.734;2023-09-30T08:37:54;8.23;;;3.42;;
34573;SDS011;20809;49.594;8.734;2023-09-30T08:40:54;5.95;;;2.60;;
34573;SDS011;20809;49.594;8.734;2023-09-30T08:43:56;6.78;;;3.45;;
34573;SDS011;20809;49.594;8.734;2023-09-30T08:47:00;7.85;;;3.10;;
34573;SDS011;20809;49.594;8.734;2023-09-30T08:50:01;5.32;;;2.75;;
34573;SDS011;20809;49.594;8.734;2023-09-30T08:53:10;5.97;;;2.85;;
34573;SDS011;20809;49.594;8.734;2023-09-30T08:56:12;9.30;;;3.53;;
34573;SDS011;20809;49.594;8.734;2023-09-30T08:59:15;8.18;;;3.10;;
34573;SDS011;20809;49.594;8.734;2023-09-30T09:02:16;4.35;;;3.15;;
34573;SDS011;20809;49.594;8.734;2023-09-30T09:05:17;6.18;;;3.08;;
34573;SDS011;20809;49.594;8.734;2023-09-30T09:08:18;3.70;;;2.47;;
34573;SDS011;20809;49.594;8.734;2023-09-30T09:11:23;5.07;;;3.22;;
34573;SDS011;20809;49.594;8.734;2023-09-30T09:14:37;5.45;;;2.88;;
34573;SDS011;20809;49.594;8.734;2023-09-30T09:17:42;8.70;;;3.58;;
34573;SDS011;20809;49.594;8.734;2023-09-30T09:20:44;7.85;;;3.40;;
34573;SDS011;20809;49.594;8.734;2023-09-30T09:23:45;5.22;;;2.78;;
34573;SDS011;20809;49.594;8.734;2023-09-30T09:26:46;7.28;;;3.10;;
34573;SDS011;20809;49.594;8.734;2023-09-30T09:29:49;4.57;;;2.55;;
34573;SDS011;20809;49.594;8.734;2023-09-30T09:33:11;5.07;;;2.60;;
34573;SDS011;20809;49.594;8.734;2023-09-30T09:36:11;4.95;;;3.25;;
34573;SDS011;20809;49.594;8.734;2023-09-30T09:39:11;6.68;;;3.58;;
34573;SDS011;20809;49.594;8.734;2023-09-30T09:42:15;14.73;;;6.68;;
34573;SDS011;20809;49.594;8.734;2023-09-30T09:45:27;8.38;;;3.53;;
34573;SDS011;20809;49.594;8.734;2023-09-30T09:48:30;9.52;;;3.92;;
34573;SDS011;20809;49.594;8.734;2023-09-30T09:51:32;6.50;;;3.60;;
34573;SDS011;20809;49.594;8.734;2023-09-30T09:54:32;5.55;;;3.55;;
34573;SDS011;20809;49.594;8.734;2023-09-30T09:57:34;7.03;;;2.97;;
34573;SDS011;20809;49.594;8.734;2023-09-30T10:00:38;10.57;;;4.45;;
34573;SDS011;20809;49.594;8.734;2023-09-30T10:03:41;7.28;;;3.50;;
34573;SDS011;20809;49.594;8.734;2023-09-30T10:06:43;6.95;;;3.75;;
34573;SDS011;20809;49.594;8.734;2023-09-30T10:09:49;6.82;;;3.65;;
34573;SDS011;20809;49.594;8.734;2023-09-30T10:12:52;7.18;;;3.55;;
34573;SDS011;20809;49.594;8.734;2023-09-30T10:15:52;17.27;;;11.85;;
34573;SDS011;20809;49.594;8.734;2023-09-30T10:19:07;9.05;;;4.43;;
34573;SDS011;20809;49.594;8.734;2023-09-30T10:25:34;6.40;;;3.90;;
34573;SDS011;20809;49.594;8.734;2023-09-30T10:28:39;8.10;;;3.55;;
34573;SDS011;20809;49.594;8.734;2023-09-30T10:31:50;6.82;;;3.30;;
34573;SDS011;20809;49.594;8.734;2023-09-30T10:34:51;9.60;;;3.65;;
34573;SDS011;20809;49.594;8.734;2023-09-30T10:37:52;9.20;;;4.20;;
34573;SDS011;20809;49.594;8.734;2023-09-30T10:44:41;7.45;;;4.07;;
34573;SDS011;20809;49.594;8.734;2023-09-30T10:47:41;8.02;;;3.92;;
34573;SDS011;20809;49.594;8.734;2023-09-30T10:50:49;8.80;;;4.47;;
34573;SDS011;20809;49.594;8.734;2023-09-30T10:53:54;9.88;;;3.78;;
34573;SDS011;20809;49.594;8.734;2023-09-30T10:57:00;5.18;;;3.22;;
34573;SDS011;20809;49.594;8.734;2023-09-30T11:00:07;7.82;;;4.35;;
34573;SDS011;20809;49.594;8.734;2023-09-30T11:03:10;8.77;;;4.30;;
34573;SDS011;20809;49.594;8.734;2023-09-30T11:06:13;6.07;;;3.55;;
34573;SDS011;20809;49.594;8.734;2023-09-30T11:09:17;5.38;;;2.92;;
34573;SDS011;20809;49.594;8.734;2023-09-30T11:12:22;9.82;;;3.10;;
34573;SDS011;20809;49.594;8.734;2023-09-30T11:15:24;7.72;;;3.58;;
34573;SDS011;20809;49.594;8.734;2023-09-30T11:18:24;8.23;;;4.43;;
34573;SDS011;20809;49.594;8.734;2023-09-30T11:21:25;7.50;;;3.47;;
34573;SDS011;20809;49.594;8.734;2023-09-30T11:24:26;5.97;;;3.70;;
34573;SDS011;20809;49.594;8.734;2023-09-30T11:27:28;10.23;;;4.32;;
34573;SDS011;20809;49.594;8.734;2023-09-30T11:30:31;7.60;;;3.80;;
34573;SDS011;20809;49.594;8.734;2023-09-30T11:33:32;5.07;;;3.05;;
34573;SDS011;20809;49.594;8.734;2023-09-30T11:36:35;8.85;;;4.00;;
34573;SDS011;20809;49.594;8.734;2023-09-30T11:39:37;6.82;;;3.40;;
34573;SDS011;20809;49.594;8.734;2023-09-30T11:42:38;6.72;;;3.47;;
34573;SDS011;20809;49.594;8.734;2023-09-30T11:45:42;5.75;;;3.30;;
34573;SDS011;20809;49.594;8.734;2023-09-30T11:48:56;8.90;;;3.70;;
34573;SDS011;20809;49.594;8.734;2023-09-30T11:52:00;7.90;;;4.07;;
34573;SDS011;20809;49.594;8.734;2023-09-30T11:55:07;7.03;;;3.22;;
34573;SDS011;20809;49.594;8.734;2023-09-30T11:58:16;8.07;;;4.30;;
34573;SDS011;20809;49.594;8.734;2023-09-30T12:01:18;6.10;;;3.53;;
34573;SDS011;20809;49.594;8.734;2023-09-30T12:04:21;6.95;;;4.13;;
34573;SDS011;20809;49.594;8.734;2023-09-30T12:07:22;6.57;;;4.15;;
34573;SDS011;20809;49.594;8.734;2023-09-30T12:10:23;11.52;;;4.32;;
34573;SDS011;20809;49.594;8.734;2023-09-30T12:13:25;5.95;;;3.75;;
34573;SDS011;20809;49.594;8.734;2023-09-30T12:16:26;5.07;;;3.70;;
34573;SDS011;20809;49.594;8.734;2023-09-30T12:19:27;6.45;;;3.47;;
34573;SDS011;20809;49.594;8.734;2023-09-30T12:22:27;7.85;;;3.78;;
34573;SDS011;20809;49.594;8.734;2023-09-30T12:25:28;7.80;;;4.28;;
34573;SDS011;20809;49.594;8.734;2023-09-30T12:31:32;6.38;;;3.60;;
34573;SDS011;20809;49.594;8.734;2023-09-30T12:34:33;5.88;;;3.08;;
34573;SDS011;20809;49.594;8.734;2023-09-30T12:37:34;6.50;;;3.08;;
34573;SDS011;20809;49.594;8.734;2023-09-30T12:40:35;6.70;;;3.95;;
34573;SDS011;20809;49.594;8.734;2023-09-30T12:43:36;7.03;;;3.35;;
34573;SDS011;20809;49.594;8.734;2023-09-30T12:46:37;5.95;;;3.70;;
34573;SDS011;20809;49.594;8.734;2023-09-30T12:49:39;11.23;;;4.80;;
34573;SDS011;20809;49.594;8.734;2023-09-30T12:52:42;6.97;;;4.13;;
34573;SDS011;20809;49.594;8.734;2023-09-30T12:55:44;8.27;;;3.50;;
34573;SDS011;20809;49.594;8.734;2023-09-30T12:58:44;7.30;;;3.63;;
34573;SDS011;20809;49.594;8.734;2023-09-30T13:01:45;8.25;;;4.05;;
34573;SDS011;20809;49.594;8.734;2023-09-30T13:04:47;6.18;;;3.95;;
34573;SDS011;20809;49.594;8.734;2023-09-30T13:10:49;6.77;;;3.97;;
34573;SDS011;20809;49.594;8.734;2023-09-30T13:16:51;10.50;;;4.00;;
34573;SDS011;20809;49.594;8.734;2023-09-30T13:19:52;8.25;;;3.95;;
34573;SDS011;20809;49.594;8.734;2023-09-30T13:22:54;7.03;;;3.78;;
34573;SDS011;20809;49.594;8.734;2023-09-30T13:25:55;10.60;;;3.65;;
34573;SDS011;20809;49.594;8.734;2023-09-30T13:28:58;6.15;;;4.00;;
34573;SDS011;20809;49.594;8.734;2023-09-30T13:31:59;7.78;;;4.07;;
34573;SDS011;20809;49.594;8.734;2023-09-30T13:35:00;7.88;;;4.00;;
34573;SDS011;20809;49.594;8.734;2023-09-30T13:38:00;9.60;;;4.30;;
34573;SDS011;20809;49.594;8.734;2023-09-30T13:41:01;5.63;;;3.80;;
34573;SDS011;20809;49.594;8.734;2023-09-30T13:44:05;8.02;;;4.28;;
34573;SDS011;20809;49.594;8.734;2023-09-30T13:47:06;8.45;;;4.70;;
34573;SDS011;20809;49.594;8.734;2023-09-30T13:50:08;7.50;;;4.07;;
34573;SDS011;20809;49.594;8.734;2023-09-30T13:53:08;8.00;;;4.00;;
34573;SDS011;20809;49.594;8.734;2023-09-30T13:56:09;9.20;;;4.45;;
34573;SDS011;20809;49.594;8.734;2023-09-30T14:02:11;9.93;;;3.87;;
34573;SDS011;20809;49.594;8.734;2023-09-30T14:08:13;8.38;;;3.47;;
34573;SDS011;20809;49.594;8.734;2023-09-30T14:11:14;8.00;;;4.07;;
34573;SDS011;20809;49.594;8.734;2023-09-30T14:14:14;7.13;;;3.70;;
34573;SDS011;20809;49.594;8.734;2023-09-30T14:17:15;6.10;;;3.95;;
34573;SDS011;20809;49.594;8.734;2023-09-30T14:20:16;8.38;;;3.67;;
34573;SDS011;20809;49.594;8.734;2023-09-30T14:23:17;7.15;;;4.00;;
34573;SDS011;20809;49.594;8.734;2023-09-30T14:26:17;6.93;;;3.70;;
34573;SDS011;20809;49.594;8.734;2023-09-30T14:29:18;5.38;;;3.78;;
34573;SDS011;20809;49.594;8.734;2023-09-30T14:32:19;7.88;;;4.18;;
34573;SDS011;20809;49.594;8.734;2023-09-30T14:35:19;12.07;;;4.43;;
34573;SDS011;20809;49.594;8.734;2023-09-30T14:38:20;8.85;;;4.10;;
34573;SDS011;20809;49.594;8.734;2023-09-30T14:41:21;5.97;;;3.97;;
34573;SDS011;20809;49.594;8.734;2023-09-30T14:44:23;9.13;;;3.72;;
34573;SDS011;20809;49.594;8.734;2023-09-30T14:47:25;7.18;;;4.05;;
34573;SDS011;20809;49.594;8.734;2023-09-30T14:50:26;8.13;;;4.38;;
34573;SDS011;20809;49.594;8.734;2023-09-30T14:53:26;8.30;;;3.75;;
34573;SDS011;20809;49.594;8.734;2023-09-30T14:56:30;9.23;;;4.70;;
34573;SDS011;20809;49.594;8.734;2023-09-30T14:59:32;7.50;;;4.22;;
34573;SDS011;20809;49.594;8.734;2023-09-30T15:02:34;7.13;;;4.25;;
34573;SDS011;20809;49.594;8.734;2023-09-30T15:05:36;6.75;;;3.92;;
34573;SDS011;20809;49.594;8.734;2023-09-30T15:08:40;6.13;;;3.50;;
34573;SDS011;20809;49.594;8.734;2023-09-30T15:14:42;8.33;;;4.43;;
34573;SDS011;20809;49.594;8.734;2023-09-30T15:17:42;9.30;;;4.93;;
34573;SDS011;20809;49.594;8.734;2023-09-30T15:20:43;6.10;;;3.55;;
34573;SDS011;20809;49.594;8.734;2023-09-30T15:23:44;9.40;;;4.13;;
34573;SDS011;20809;49.594;8.734;2023-09-30T15:26:45;9.98;;;4.72;;
34573;SDS011;20809;49.594;8.734;2023-09-30T15:29:45;6.60;;;3.47;;
34573;SDS011;20809;49.594;8.734;2023-09-30T15:32:46;6.75;;;3.95;;
34573;SDS011;20809;49.594;8.734;2023-09-30T15:35:50;8.25;;;3.63;;
34573;SDS011;20809;49.594;8.734;2023-09-30T15:38:51;7.32;;;3.45;;
34573;SDS011;20809;49.594;8.734;2023-09-30T15:41:53;9.43;;;4.38;;
34573;SDS011;20809;49.594;8.734;2023-09-30T15:44:54;7.22;;;4.70;;
34573;SDS011;20809;49.594;8.734;2023-09-30T15:47:57;9.05;;;3.50;;
34573;SDS011;20809;49.594;8.734;2023-09-30T15:50:58;7.78;;;4.05;;
34573;SDS011;20809;49.594;8.734;2023-09-30T15:53:59;11.50;;;4.95;;
34573;SDS011;20809;49.594;8.734;2023-09-30T15:57:00;13.10;;;4.97;;
34573;SDS011;20809;49.594;8.734;2023-09-30T16:00:00;9.07;;;4.18;;
34573;SDS011;20809;49.594;8.734;2023-09-30T16:03:01;9.80;;;4.53;;
34573;SDS011;20809;49.594;8.734;2023-09-30T16:06:05;7.88;;;4.63;;
34573;SDS011;20809;49.594;8.734;2023-09-30T16:09:08;8.80;;;4.65;;
34573;SDS011;20809;49.594;8.734;2023-09-30T16:12:15;8.52;;;4.05;;
34573;SDS011;20809;49.594;8.734;2023-09-30T16:15:16;6.75;;;3.63;;
34573;SDS011;20809;49.594;8.734;2023-09-30T16:18:17;5.55;;;3.72;;
34573;SDS011;20809;49.594;8.734;2023-09-30T16:21:18;8.73;;;3.47;;
34573;SDS011;20809;49.594;8.734;2023-09-30T16:24:19;7.50;;;3.42;;
34573;SDS011;20809;49.594;8.734;2023-09-30T16:27:20;6.72;;;4.07;;
34573;SDS011;20809;49.594;8.734;2023-09-30T16:33:22;6.80;;;4.00;;
34573;SDS011;20809;49.594;8.734;2023-09-30T16:36:25;9.00;;;4.28;;
34573;SDS011;20809;49.594;8.734;2023-09-30T16:39:29;7.15;;;4.05;;
34573;SDS011;20809;49.594;8.734;2023-09-30T16:42:29;6.68;;;4.25;;
34573;SDS011;20809;49.594;8.734;2023-09-30T16:45:31;7.10;;;4.22;;
34573;SDS011;20809;49.594;8.734;2023-09-30T16:48:32;7.22;;;4.22;;
34573;SDS011;20809;49.594;8.734;2023-09-30T16:51:33;11.02;;;4.60;;
34573;SDS011;20809;49.594;8.734;2023-09-30T16:54:34;6.90;;;4.75;;
34573;SDS011;20809;49.594;8.734;2023-09-30T16:57:35;7.90;;;4.18;;
34573;SDS011;20809;49.594;8.734;2023-09-30T17:03:38;7.38;;;4.13;;
34573;SDS011;20809;49.594;8.734;2023-09-30T17:06:41;10.52;;;4.18;;
34573;SDS011;20809;49.594;8.734;2023-09-30T17:12:43;11.40;;;5.00;;
34573;SDS011;20809;49.594;8.734;2023-09-30T17:15:45;7.60;;;4.30;;
34573;SDS011;20809;49.594;8.734;2023-09-30T17:18:46;6.93;;;5.38;;
34573;SDS011;20809;49.594;8.734;2023-09-30T17:21:48;9.27;;;5.72;;
34573;SDS011;20809;49.594;8.734;2023-09-30T17:24:50;9.05;;;5.63;;
34573;SDS011;20809;49.594;8.734;2023-09-30T17:27:51;10.30;;;5.60;;
34573;SDS011;20809;49.594;8.734;2023-09-30T17:34:01;8.85;;;4.90;;
34573;SDS011;20809;49.594;8.734;2023-09-30T17:37:06;9.93;;;5.05;;
34573;SDS011;20809;49.594;8.734;2023-09-30T17:40:08;12.80;;;5.07;;
34573;SDS011;20809;49.594;8.734;2023-09-30T17:43:10;13.55;;;5.05;;
34573;SDS011;20809;49.594;8.734;2023-09-30T17:46:13;8.43;;;5.00;;
34573;SDS011;20809;49.594;8.734;2023-09-30T17:49:19;7.40;;;4.20;;
34573;SDS011;20809;49.594;8.734;2023-09-30T17:52:21;8.00;;;4.45;;
34573;SDS011;20809;49.594;8.734;2023-09-30T17:55:23;8.93;;;4.72;;
34573;SDS011;20809;49.594;8.734;2023-09-30T17:58:25;7.85;;;4.80;;
34573;SDS011;20809;49.594;8.734;2023-09-30T18:01:30;5.70;;;4.15;;
34573;SDS011;20809;49.594;8.734;2023-09-30T18:04:32;9.98;;;4.60;;
34573;SDS011;20809;49.594;8.734;2023-09-30T18:07:41;8.85;;;3.72;;
34573;SDS011;20809;49.594;8.734;2023-09-30T18:10:44;9.50;;;4.50;;
34573;SDS011;20809;49.594;8.734;2023-09-30T18:13:46;11.23;;;4.60;;
34573;SDS011;20809;49.594;8.734;2023-09-30T18:16:48;9.35;;;4.68;;
34573;SDS011;20809;49.594;8.734;2023-09-30T18:19:50;15.40;;;7.13;;
34573;SDS011;20809;49.594;8.734;2023-09-30T18:22:52;12.15;;;6.50;;
34573;SDS011;20809;49.594;8.734;2023-09-30T18:25:54;10.07;;;5.28;;
34573;SDS011;20809;49.594;8.734;2023-09-30T18:28:56;18.92;;;11.40;;
34573;SDS011;20809;49.594;8.734;2023-09-30T18:31:58;37.38;;;23.83;;
34573;SDS011;20809;49.594;8.734;2023-09-30T18:35:00;14.18;;;10.35;;
34573;SDS011;20809;49.594;8.734;2023-09-30T18:38:05;10.55;;;7.15;;
34573;SDS011;20809;49.594;8.734;2023-09-30T18:41:14;15.35;;;8.25;;
34573;SDS011;20809;49.594;8.734;2023-09-30T18:44:17;11.07;;;6.05;;
34573;SDS011;20809;49.594;8.734;2023-09-30T18:47:18;7.53;;;5.00;;
34573;SDS011;20809;49.594;8.734;2023-09-30T18:50:20;12.35;;;7.47;;
34573;SDS011;20809;49.594;8.734;2023-09-30T18:53:22;12.68;;;6.70;;
34573;SDS011;20809;49.594;8.734;2023-09-30T18:56:24;11.00;;;6.60;;
34573;SDS011;20809;49.594;8.734;2023-09-30T18:59:26;10.80;;;6.32;;
34573;SDS011;20809;49.594;8.734;2023-09-30T19:02:28;12.32;;;6.75;;
34573;SDS011;20809;49.594;8.734;2023-09-30T19:05:33;14.43;;;7.50;;
34573;SDS011;20809;49.594;8.734;2023-09-30T19:08:35;9.13;;;6.18;;
34573;SDS011;20809;49.594;8.734;2023-09-30T19:11:37;23.55;;;13.75;;